Currently N/A°F in Anza, California, USA
N/A°F Alert
54°F / 51°F
N/A
0.00"
Monday, May 27, 2024 9:28 AM PDT

Anza, California Weather Summary
Last 36 Hours

Temperature Winds Hourly Humidity Dewpoint
Time Report Norm Report Norm Max Gusts Precip. Rpt. Norm Rpt. Norm Pressure
1Mon 01:33 AM  51.6°F  52°F  4 mph S  5 mph  7 mph  0.00"  72%  82%  42°F  47°F  29.91"
3Mon 01:17 AM  51.3°F  53°F  5 mph S  5 mph  7 mph  ----  75%  82%  43°F  47°F  29.91"
Mon 01:00 AM  52.0°F  53°F  6 mph SW  6 mph  10 mph  0.00"  78%  82%  45°F  47°F  29.92"
2Mon 12:09 AM  53.5°F  53°F  7 mph W  6 mph  10 mph  ----  89%  82%  50°F  48°F  29.92"
Mon 12:00 AM  53.5°F  54°F  7 mph NW  5 mph  10 mph  0.00"  88%  82%  50°F  48°F  29.92"
Sun 11:00 PM  53.9°F  55°F  7 mph N  6 mph  10 mph  0.00"  86%  80%  50°F  48°F  29.93"
Sun 10:00 PM  54.8°F  56°F  6 mph SW  6 mph  10 mph  0.00"  83%  77%  49°F  49°F  29.93"
Sun 09:00 PM  56.2°F  58°F  6 mph S  6 mph  9 mph  0.00"  80%  73%  50°F  49°F  29.92"
Sun 08:00 PM  60.5°F  61°F  7 mph NW  6 mph  16 mph  0.00"  69%  66%  50°F  49°F  29.91"
Sun 07:00 PM  66.8°F  66°F  10 mph NW  9 mph  19 mph  0.00"  54%  55%  49°F  49°F  29.89"
Sun 06:00 PM  70.5°F  70°F  14 mph NW  10 mph  20 mph  0.00"  44%  48%  47°F  49°F  29.90"
Sun 05:00 PM  73.8°F  73°F  11 mph NW  10 mph  19 mph  0.00"  35%  43%  44°F  48°F  29.90"
Sun 04:00 PM  75.6°F  74°F  11 mph NW  11 mph  19 mph  0.00"  30%  40%  41°F  47°F  29.91"
Sun 03:00 PM  77.0°F  75°F  11 mph NW  10 mph  19 mph  0.00"  26%  38%  38°F  47°F  29.92"
Sun 02:00 PM  76.9°F  75°F  5 mph NW  9 mph  17 mph  0.00"  23%  37%  35°F  46°F  29.93"
Sun 01:00 PM  76.3°F  74°F  8 mph NW  9 mph  20 mph  0.00"  24%  36%  35°F  45°F  29.94"
Sun 12:00 PM  74.1°F  73°F  10 mph NW  9 mph  18 mph  0.00"  34%  37%  43°F  45°F  29.94"
Sun 11:00 AM  70.9°F  72°F  8 mph NW  9 mph  16 mph  0.00"  38%  39%  43°F  45°F  29.93"
Sun 10:02 AM  68.3°F  70°F  8 mph NW  8 mph  15 mph  0.00"  42%  43%  43°F  45°F  29.93"
Sun 01:00 AM  49.2°F  52°F  10 mph S  6 mph  17 mph  0.00"  95%  83%  48°F  47°F  29.88"
Sun 12:00 AM  49.8°F  53°F  13 mph NW  6 mph  17 mph  0.00"  94%  83%  48°F  48°F  29.89"
Sat 11:00 PM  50.2°F  54°F  7 mph NW  6 mph  12 mph  0.00"  93%  81%  48°F  48°F  29.90"
Sat 10:00 PM  49.3°F  55°F  8 mph NW  6 mph  11 mph  0.00"  92%  78%  47°F  48°F  29.90"
Sat 09:00 PM  50.0°F  57°F  5 mph W  6 mph  11 mph  0.00"  90%  74%  47°F  48°F  29.89"
Sat 08:00 PM  53.2°F  60°F  8 mph NW  6 mph  21 mph  0.00"  84%  67%  48°F  49°F  29.87"
Sat 07:00 PM  58.4°F  66°F  16 mph NW  9 mph  24 mph  0.00"  71%  56%  49°F  49°F  29.86"
Sat 06:00 PM  62.0°F  69°F  13 mph NW  10 mph  23 mph  0.00"  62%  49%  48°F  49°F  29.85"
Sat 05:00 PM  64.2°F  72°F  9 mph W  10 mph  23 mph  0.00"  55%  44%  47°F  48°F  29.86"
Sat 04:00 PM  65.7°F  73°F  16 mph NW  11 mph  25 mph  0.00"  49%  41%  45°F  47°F  29.87"
Sat 03:00 PM  66.7°F  74°F  15 mph NW  10 mph  23 mph  0.00"  46%  39%  45°F  47°F  29.88"
Sat 02:00 PM  65.7°F  74°F  15 mph NW  10 mph  27 mph  0.00"  48%  38%  45°F  46°F  29.89"

  1. Current weather data. No green row appears if the current weather data is also the high or low for the current day.
  2. High temperature for the current day.
  3. Low temperature for the current day.

The Anza, California weather pages are a service of WeatherCurrents. The Anza Valley is southwestern Riverside County, east of Temecula and Aguanga, south of Mount San Jacinto and west of Mount Santa Rosa.
Copyright ©2024  WeatherCurrents. All rights reserved. - Submit questions and comments - Privacy Policy

This page automatically refreshes every 10 minutes.